createdAt,value
2017-07-27T00:02:03.071Z,13.9
2017-07-27T00:07:03.328Z,13.8
2017-07-27T00:12:03.090Z,13.9
2017-07-27T00:17:03.054Z,14.0
2017-07-27T00:22:03.603Z,14.0
2017-07-27T00:27:03.431Z,14.0
2017-07-27T00:32:03.347Z,14.0
2017-07-27T00:37:02.964Z,14.0
2017-07-27T00:42:03.609Z,14.1
2017-07-27T00:47:03.439Z,14.1
2017-07-27T00:52:03.154Z,14.1
2017-07-27T00:57:02.995Z,14.1
2017-07-27T01:02:02.779Z,14.2
2017-07-27T01:07:03.502Z,14.1
2017-07-27T01:12:03.404Z,14.1
2017-07-27T01:17:03.336Z,14.1
2017-07-27T01:22:03.236Z,14.1
2017-07-27T01:27:02.951Z,14.1
2017-07-27T01:32:02.763Z,14.2
2017-07-27T01:37:03.590Z,14.1
2017-07-27T01:42:03.165Z,14.3
2017-07-27T01:47:03.068Z,14.6
2017-07-27T01:52:02.857Z,14.5
2017-07-27T01:57:03.639Z,14.7
2017-07-27T02:02:03.392Z,14.8
2017-07-27T02:07:03.512Z,14.7
2017-07-27T02:12:03.490Z,14.7
2017-07-27T02:17:03.287Z,14.7
2017-07-27T02:22:03.330Z,14.8
2017-07-27T02:27:03.041Z,14.8
2017-07-27T02:32:02.704Z,14.9
2017-07-27T02:37:03.446Z,15.0
2017-07-27T02:42:02.740Z,15.1
2017-07-27T02:47:03.122Z,15.1
2017-07-27T02:52:03.494Z,15.4
2017-07-27T02:57:02.755Z,15.3
2017-07-27T03:02:03.170Z,15.5
2017-07-27T03:07:03.535Z,15.5
2017-07-27T03:12:03.069Z,15.3
2017-07-27T03:17:04.134Z,15.4
2017-07-27T03:22:02.883Z,15.4
2017-07-27T03:27:03.272Z,15.6
2017-07-27T03:32:13.469Z,15.5
2017-07-27T03:37:03.200Z,15.6
2017-07-27T03:42:02.823Z,15.5
2017-07-27T03:47:13.870Z,15.5
2017-07-27T03:52:02.656Z,15.5
2017-07-27T03:57:02.987Z,15.5
2017-07-27T04:02:13.766Z,15.6
2017-07-27T04:07:03.174Z,15.6
2017-07-27T04:12:03.305Z,15.7
2017-07-27T04:17:13.759Z,16.0
2017-07-27T04:22:02.757Z,15.9
2017-07-27T04:27:03.400Z,16.2
2017-07-27T04:32:13.458Z,16.2
2017-07-27T04:37:03.547Z,16.3
2017-07-27T04:42:03.040Z,16.4
2017-07-27T04:47:18.099Z,16.5
2017-07-27T04:52:03.221Z,16.5
2017-07-27T04:57:02.708Z,16.6
2017-07-27T05:02:13.997Z,16.5
2017-07-27T05:07:03.083Z,16.5
2017-07-27T05:12:03.514Z,16.6
2017-07-27T05:17:17.353Z,16.6
2017-07-27T05:22:03.597Z,16.6
2017-07-27T05:27:03.056Z,16.7
2017-07-27T05:32:13.873Z,16.6
2017-07-27T05:37:03.213Z,16.7
2017-07-27T05:42:02.766Z,16.7
2017-07-27T05:47:17.202Z,16.7
2017-07-27T05:52:02.838Z,16.6
2017-07-27T05:57:03.368Z,16.6
2017-07-27T06:02:13.384Z,16.6
2017-07-27T06:07:03.213Z,16.6
2017-07-27T06:12:03.259Z,16.9
2017-07-27T06:17:13.784Z,17.4
2017-07-27T06:22:03.257Z,17.4
2017-07-27T06:27:03.677Z,17.8
2017-07-27T06:32:13.696Z,17.9
2017-07-27T06:37:03.223Z,17.9
2017-07-27T06:42:03.622Z,17.9
2017-07-27T06:47:17.015Z,18.0
2017-07-27T06:52:03.040Z,18.2
2017-07-27T06:57:03.409Z,19.0
2017-07-27T07:02:22.186Z,19.3
2017-07-27T07:07:02.966Z,19.3
2017-07-27T07:12:03.450Z,19.7
2017-07-27T07:17:13.728Z,19.9
2017-07-27T07:22:03.362Z,20.1
2017-07-27T07:27:02.806Z,20.0
2017-07-27T07:32:13.786Z,20.1
2017-07-27T07:37:03.566Z,20.1
2017-07-27T07:42:02.981Z,20.3
2017-07-27T07:47:18.090Z,20.3
2017-07-27T07:52:02.683Z,20.6
2017-07-27T07:57:03.153Z,20.5
2017-07-27T08:02:13.953Z,20.8
2017-07-27T08:07:03.616Z,20.8
2017-07-27T08:12:03.200Z,21.0
2017-07-27T08:17:14.294Z,21.5
2017-07-27T08:22:02.748Z,21.5
2017-07-27T08:27:03.328Z,21.5
2017-07-27T08:32:13.285Z,21.4
2017-07-27T08:37:03.158Z,21.3
2017-07-27T08:42:03.547Z,21.4
2017-07-27T08:47:13.763Z,21.8
2017-07-27T08:52:02.706Z,23.1
2017-07-27T08:57:03.245Z,23.0
2017-07-27T09:02:14.174Z,23.4
2017-07-27T09:07:03.356Z,23.4
2017-07-27T09:12:02.839Z,22.9
2017-07-27T09:17:14.180Z,22.9
2017-07-27T09:22:03.434Z,22.8
2017-07-27T09:27:02.850Z,22.8
2017-07-27T09:32:13.685Z,22.8
2017-07-27T09:37:03.381Z,23.2
2017-07-27T09:42:02.867Z,23.4
2017-07-27T09:47:18.043Z,23.4
2017-07-27T09:52:02.870Z,23.3
2017-07-27T09:57:03.273Z,23.2
2017-07-27T10:02:13.278Z,23.5
2017-07-27T10:07:03.519Z,23.6
2017-07-27T10:12:03.267Z,23.8
2017-07-27T10:17:17.499Z,23.9
2017-07-27T10:22:03.243Z,23.8
2017-07-27T10:27:02.724Z,23.9
2017-07-27T10:32:19.051Z,24.1
2017-07-27T10:37:03.365Z,24.4
2017-07-27T10:42:02.807Z,24.8
2017-07-27T10:47:13.515Z,24.6
2017-07-27T10:52:02.891Z,24.6
2017-07-27T10:57:03.307Z,24.5
2017-07-27T11:07:03.424Z,25.5
2017-07-27T11:12:03.527Z,25.2
2017-07-27T11:17:13.657Z,25.1
2017-07-27T11:22:03.506Z,24.9
2017-07-27T11:27:03.008Z,24.9
2017-07-27T11:32:10.331Z,25.5
2017-07-27T11:37:02.718Z,25.6
2017-07-27T11:42:03.226Z,25.8
2017-07-27T11:47:14.058Z,26.1
2017-07-27T11:52:03.582Z,26.7
2017-07-27T11:57:02.731Z,26.7
2017-07-27T12:02:13.775Z,27.5
2017-07-27T12:07:03.813Z,27.7
2017-07-27T12:12:03.183Z,27.7
2017-07-27T12:17:13.902Z,27.2
2017-07-27T12:22:03.451Z,27.1
2017-07-27T12:27:02.932Z,26.3
2017-07-27T12:32:13.872Z,25.5
2017-07-27T12:37:03.493Z,25.5
2017-07-27T12:42:02.809Z,23.9
2017-07-27T12:47:13.913Z,23.8
2017-07-27T12:52:03.191Z,24.1
2017-07-27T12:57:03.504Z,25.0
2017-07-27T13:02:13.278Z,26.1
2017-07-27T13:07:03.198Z,26.1
2017-07-27T13:12:02.912Z,26.2
2017-07-27T13:17:13.697Z,26.3
2017-07-27T13:22:03.449Z,26.2
2017-07-27T13:27:02.962Z,25.8
2017-07-27T13:32:13.974Z,24.8
2017-07-27T13:37:03.000Z,24.1
2017-07-27T13:42:03.377Z,23.6
2017-07-27T13:47:13.119Z,23.6
2017-07-27T13:52:02.936Z,24.0
2017-07-27T13:57:03.392Z,24.8
2017-07-27T14:02:16.681Z,25.0
2017-07-27T14:07:03.593Z,25.1
2017-07-27T14:12:03.340Z,25.1
2017-07-27T14:22:02.803Z,24.3
2017-07-27T14:27:03.280Z,24.3
2017-07-27T14:32:14.025Z,23.6
2017-07-27T14:37:03.479Z,23.6
2017-07-27T14:42:02.934Z,24.5
2017-07-27T14:47:18.006Z,26.6
2017-07-27T14:52:03.585Z,26.6
2017-07-27T14:57:03.122Z,26.7
2017-07-27T15:02:14.011Z,24.8
2017-07-27T15:07:03.591Z,24.8
2017-07-27T15:12:03.205Z,24.6
2017-07-27T15:17:14.177Z,24.5
2017-07-27T15:22:03.205Z,24.6
2017-07-27T15:27:03.591Z,24.4
2017-07-27T15:32:13.263Z,24.3
2017-07-27T15:37:03.369Z,24.3
2017-07-27T15:42:02.793Z,24.4
2017-07-27T15:47:13.912Z,24.5
2017-07-27T15:52:02.696Z,24.5
2017-07-27T15:57:03.234Z,24.5
2017-07-27T16:02:13.189Z,24.3
2017-07-27T16:07:03.232Z,24.3
2017-07-27T16:12:02.849Z,24.2
2017-07-27T16:17:14.014Z,24.1
2017-07-27T16:22:03.328Z,24.2
2017-07-27T16:27:02.777Z,24.2
2017-07-27T16:32:13.520Z,23.9
2017-07-27T16:37:02.766Z,23.9
2017-07-27T16:42:03.351Z,23.6
2017-07-27T16:47:17.503Z,23.6
2017-07-27T16:52:02.702Z,23.4
2017-07-27T16:57:03.297Z,23.5
2017-07-27T17:02:11.725Z,23.3
2017-07-27T17:07:03.312Z,23.3
2017-07-27T17:12:02.897Z,23.1
2017-07-27T17:17:14.188Z,23.1
2017-07-27T17:22:02.854Z,22.6
2017-07-27T17:27:03.270Z,22.4
2017-07-27T17:37:03.362Z,22.1
2017-07-27T17:42:02.761Z,22.0
2017-07-27T17:47:18.097Z,21.9
2017-07-27T17:52:02.790Z,21.9
2017-07-27T17:57:03.158Z,21.8
2017-07-27T18:02:13.647Z,21.5
2017-07-27T18:07:02.901Z,21.3
2017-07-27T18:12:03.439Z,21.3
2017-07-27T18:17:13.663Z,21.1
2017-07-27T18:22:03.437Z,20.9
2017-07-27T18:27:03.054Z,20.9
2017-07-27T18:32:14.072Z,20.9
2017-07-27T18:37:02.949Z,20.8
2017-07-27T18:42:03.518Z,20.7
2017-07-27T18:47:13.150Z,20.5
2017-07-27T18:52:02.890Z,20.5
2017-07-27T18:57:02.872Z,20.4
2017-07-27T19:02:13.668Z,20.3
2017-07-27T19:07:03.599Z,20.2
2017-07-27T19:12:03.073Z,20.1
2017-07-27T19:17:13.999Z,20.1
2017-07-27T19:22:02.986Z,20.0
2017-07-27T19:27:03.358Z,20.0
2017-07-27T19:32:17.830Z,19.8
2017-07-27T19:37:02.950Z,19.8
2017-07-27T19:42:03.277Z,19.8
2017-07-27T19:47:05.402Z,19.7
2017-07-27T19:52:03.103Z,19.7
2017-07-27T19:57:03.433Z,19.6
2017-07-27T20:02:02.922Z,19.5
2017-07-27T20:07:03.308Z,19.5
2017-07-27T20:12:02.784Z,19.5
2017-07-27T20:17:03.496Z,19.5
2017-07-27T20:22:03.448Z,19.5
2017-07-27T20:27:02.820Z,19.4
2017-07-27T20:32:03.155Z,19.5
2017-07-27T20:37:03.469Z,19.5
2017-07-27T20:42:02.762Z,19.4
2017-07-27T20:47:03.125Z,19.4
2017-07-27T20:52:03.594Z,19.5
2017-07-27T20:57:02.780Z,19.5
2017-07-27T21:02:03.105Z,19.6
2017-07-27T21:07:03.681Z,19.6
2017-07-27T21:12:03.017Z,19.6
2017-07-27T21:17:03.368Z,19.7
2017-07-27T21:22:03.660Z,19.6
2017-07-27T21:27:03.100Z,19.5
2017-07-27T21:32:03.369Z,19.5
2017-07-27T21:37:02.715Z,19.4
2017-07-27T21:42:03.066Z,19.5
2017-07-27T21:47:03.296Z,19.1
2017-07-27T21:52:02.654Z,18.8
2017-07-27T21:57:03.011Z,18.6
2017-07-27T22:02:03.490Z,18.3
2017-07-27T22:07:03.012Z,18.4
2017-07-27T22:12:03.073Z,18.4
2017-07-27T22:22:03.504Z,18.3
2017-07-27T22:27:02.727Z,18.2
2017-07-27T22:32:03.264Z,18.0
2017-07-27T22:37:03.617Z,17.9
2017-07-27T22:42:03.066Z,17.9
2017-07-27T22:47:03.487Z,17.6
2017-07-27T22:52:03.292Z,17.5
2017-07-27T22:57:02.798Z,17.5
2017-07-27T23:02:03.467Z,17.4
2017-07-27T23:07:03.116Z,17.4
2017-07-27T23:12:02.892Z,17.5
2017-07-27T23:17:03.590Z,17.5
2017-07-27T23:22:03.325Z,17.5
2017-07-27T23:27:03.109Z,17.4
2017-07-27T23:32:02.680Z,17.4
2017-07-27T23:37:03.637Z,17.3
2017-07-27T23:42:03.308Z,17.3
2017-07-27T23:47:03.046Z,17.2
2017-07-27T23:52:03.369Z,17.1
2017-07-27T23:57:03.061Z,17.1
